Flight Briefing for CMB830

Departure Arrival
KeflavĂ­k International Airport (BIKF)
Click to view FAA NOTAMS
Joint Base McGuire Dix Lakehurst (KWRI)
Click to view FAA NOTAMS
Departure Time Arrival Time
N/A N/A
Aircraft Distance
B757-200SF 2305nm
Departure METAR Arrival METAR
BIKF 250230Z 15006KT CAVOK 05/05 Q1018 KWRI 250156Z AUTO 05009KT 10SM BKN180 19/11 A3009 RMK AO2 SLP188 T01870108
Suggested Route
RALOV1D RALOV RAKIS 6235N N6040 5944N 5650N YAY J580 YQY YQI J585 ACK J62 RIFLE J174 EMJAY HEADI


View recent IFR Routes data
Notes
USTRANSCOM CONTRACT FLIGHT

Charts and Procedures

Charts for BIKF
No chart available
Charts for KWRI
No chart available

Windy.com Weather Map